sensor_id;sensor_type;location;lat;lon;timestamp;pressure;altitude;pressure_sealevel;temperature;humidity
51452;BME280;37521;52.020;-1.740;2023-04-23T00:02:00;98337.50;;;5.90;100.00
51452;BME280;37521;52.020;-1.740;2023-04-23T00:04:30;98324.34;;;5.92;100.00
51452;BME280;37521;52.020;-1.740;2023-04-23T00:07:04;98332.09;;;5.93;100.00
51452;BME280;37521;52.020;-1.740;2023-04-23T00:09:32;98324.16;;;5.95;100.00
51452;BME280;37521;52.020;-1.740;2023-04-23T00:12:02;98323.16;;;5.97;100.00
51452;BME280;37521;52.020;-1.740;2023-04-23T00:14:33;98315.22;;;5.99;100.00
51452;BME280;37521;52.020;-1.740;2023-04-23T00:17:01;98316.81;;;6.01;100.00
51452;BME280;37521;52.020;-1.740;2023-04-23T00:19:29;98318.44;;;6.04;100.00
51452;BME280;37521;52.020;-1.740;2023-04-23T00:21:58;98311.41;;;6.05;100.00
51452;BME280;37521;52.020;-1.740;2023-04-23T00:24:27;98311.31;;;6.06;100.00
51452;BME280;37521;52.020;-1.740;2023-04-23T00:26:57;98313.84;;;6.08;100.00
51452;BME280;37521;52.020;-1.740;2023-04-23T00:29:26;98311.16;;;6.09;100.00
51452;BME280;37521;52.020;-1.740;2023-04-23T00:31:55;98305.84;;;6.11;100.00
51452;BME280;37521;52.020;-1.740;2023-04-23T00:34:23;98296.09;;;6.13;100.00
51452;BME280;37521;52.020;-1.740;2023-04-23T00:36:51;98302.97;;;6.15;100.00
51452;BME280;37521;52.020;-1.740;2023-04-23T00:39:19;98297.63;;;6.17;100.00
51452;BME280;37521;52.020;-1.740;2023-04-23T00:41:50;98288.84;;;6.18;100.00
51452;BME280;37521;52.020;-1.740;2023-04-23T00:44:19;98287.91;;;6.19;100.00
51452;BME280;37521;52.020;-1.740;2023-04-23T00:46:49;98287.81;;;6.20;100.00
51452;BME280;37521;52.020;-1.740;2023-04-23T00:49:18;98283.34;;;6.22;100.00
51452;BME280;37521;52.020;-1.740;2023-04-23T00:51:47;98284.94;;;6.25;100.00
51452;BME280;37521;52.020;-1.740;2023-04-23T00:54:15;98282.31;;;6.25;100.00
51452;BME280;37521;52.020;-1.740;2023-04-23T00:56:44;98283.06;;;6.27;100.00
51452;BME280;37521;52.020;-1.740;2023-04-23T00:59:13;98278.69;;;6.27;100.00
51452;BME280;37521;52.020;-1.740;2023-04-23T01:01:41;98281.22;;;6.29;100.00
51452;BME280;37521;52.020;-1.740;2023-04-23T01:04:12;98274.13;;;6.31;100.00
51452;BME280;37521;52.020;-1.740;2023-04-23T01:06:42;98274.13;;;6.31;100.00
51452;BME280;37521;52.020;-1.740;2023-04-23T01:09:10;98271.41;;;6.33;100.00
51452;BME280;37521;52.020;-1.740;2023-04-23T01:11:39;98262.59;;;6.34;100.00
51452;BME280;37521;52.020;-1.740;2023-04-23T01:14:10;98258.19;;;6.34;100.00
51452;BME280;37521;52.020;-1.740;2023-04-23T01:16:39;98256.34;;;6.36;100.00
51452;BME280;37521;52.020;-1.740;2023-04-23T01:19:09;98261.59;;;6.36;100.00
51452;BME280;37521;52.020;-1.740;2023-04-23T01:21:38;98253.66;;;6.38;100.00
51452;BME280;37521;52.020;-1.740;2023-04-23T01:24:10;98245.69;;;6.39;100.00
51452;BME280;37521;52.020;-1.740;2023-04-23T01:26:39;98249.91;;;6.42;100.00
51452;BME280;37521;52.020;-1.740;2023-04-23T01:29:07;98247.22;;;6.43;100.00
51452;BME280;37521;52.020;-1.740;2023-04-23T01:31:37;98242.72;;;6.45;100.00
51452;BME280;37521;52.020;-1.740;2023-04-23T01:34:08;98247.03;;;6.46;100.00
51452;BME280;37521;52.020;-1.740;2023-04-23T01:36:37;98251.31;;;6.47;100.00
51452;BME280;37521;52.020;-1.740;2023-04-23T01:39:05;98250.38;;;6.48;100.00
51452;BME280;37521;52.020;-1.740;2023-04-23T01:41:36;98245.16;;;6.48;100.00
51452;BME280;37521;52.020;-1.740;2023-04-23T01:44:04;98252.09;;;6.49;100.00
51452;BME280;37521;52.020;-1.740;2023-04-23T01:46:33;98245.81;;;6.52;100.00
51452;BME280;37521;52.020;-1.740;2023-04-23T01:49:01;98243.09;;;6.53;100.00
51452;BME280;37521;52.020;-1.740;2023-04-23T01:51:30;98238.72;;;6.54;100.00
51452;BME280;37521;52.020;-1.740;2023-04-23T01:53:58;98240.38;;;6.55;100.00
51452;BME280;37521;52.020;-1.740;2023-04-23T01:56:27;98226.38;;;6.56;100.00
51452;BME280;37521;52.020;-1.740;2023-04-23T01:58:57;98232.47;;;6.57;100.00
51452;BME280;37521;52.020;-1.740;2023-04-23T02:01:39;98221.97;;;6.57;100.00
51452;BME280;37521;52.020;-1.740;2023-04-23T02:04:08;98227.22;;;6.57;100.00
51452;BME280;37521;52.020;-1.740;2023-04-23T02:06:37;98233.31;;;6.57;100.00
51452;BME280;37521;52.020;-1.740;2023-04-23T02:09:06;98231.41;;;6.59;100.00
51452;BME280;37521;52.020;-1.740;2023-04-23T02:11:34;98227.97;;;6.59;100.00
51452;BME280;37521;52.020;-1.740;2023-04-23T02:14:04;98221.78;;;6.60;100.00
51452;BME280;37521;52.020;-1.740;2023-04-23T02:16:33;98225.25;;;6.60;100.00
51452;BME280;37521;52.020;-1.740;2023-04-23T02:19:01;98219.91;;;6.62;100.00
51452;BME280;37521;52.020;-1.740;2023-04-23T02:21:30;98212.91;;;6.62;100.00
51452;BME280;37521;52.020;-1.740;2023-04-23T02:23:58;98220.66;;;6.64;100.00
51452;BME280;37521;52.020;-1.740;2023-04-23T02:26:26;98222.25;;;6.66;100.00
51452;BME280;37521;52.020;-1.740;2023-04-23T02:28:54;98218.63;;;6.69;100.00
51452;BME280;37521;52.020;-1.740;2023-04-23T02:31:24;98223.78;;;6.70;100.00
51452;BME280;37521;52.020;-1.740;2023-04-23T02:33:53;98230.59;;;6.73;100.00
51452;BME280;37521;52.020;-1.740;2023-04-23T02:36:21;98229.78;;;6.72;100.00
51452;BME280;37521;52.020;-1.740;2023-04-23T02:38:50;98239.03;;;6.64;100.00
51452;BME280;37521;52.020;-1.740;2023-04-23T02:41:18;98240.47;;;6.53;100.00
51452;BME280;37521;52.020;-1.740;2023-04-23T02:43:47;98232.22;;;6.45;100.00
51452;BME280;37521;52.020;-1.740;2023-04-23T02:46:15;98237.72;;;6.41;100.00
51452;BME280;37521;52.020;-1.740;2023-04-23T02:48:44;98243.25;;;6.36;100.00
51452;BME280;37521;52.020;-1.740;2023-04-23T02:51:13;98245.28;;;6.31;100.00
51452;BME280;37521;52.020;-1.740;2023-04-23T02:53:41;98249.84;;;6.27;100.00
51452;BME280;37521;52.020;-1.740;2023-04-23T02:56:09;98251.13;;;6.20;100.00
51452;BME280;37521;52.020;-1.740;2023-04-23T02:58:38;98253.09;;;6.17;100.00
51452;BME280;37521;52.020;-1.740;2023-04-23T03:01:06;98246.22;;;6.14;100.00
51452;BME280;37521;52.020;-1.740;2023-04-23T03:03:35;98249.19;;;6.08;100.00
51452;BME280;37521;52.020;-1.740;2023-04-23T03:06:06;98237.22;;;6.04;100.00
51452;BME280;37521;52.020;-1.740;2023-04-23T03:08:34;98248.78;;;6.00;100.00
51452;BME280;37521;52.020;-1.740;2023-04-23T03:11:02;98249.81;;;5.97;100.00
51452;BME280;37521;52.020;-1.740;2023-04-23T03:13:31;98250.91;;;5.93;100.00
51452;BME280;37521;52.020;-1.740;2023-04-23T03:15:59;98248.44;;;5.90;100.00
51452;BME280;37521;52.020;-1.740;2023-04-23T03:18:27;98249.44;;;5.88;100.00
51452;BME280;37521;52.020;-1.740;2023-04-23T03:20:57;98254.00;;;5.84;100.00
51452;BME280;37521;52.020;-1.740;2023-04-23T03:23:26;98253.31;;;5.81;100.00
51452;BME280;37521;52.020;-1.740;2023-04-23T03:25:54;98254.34;;;5.78;100.00
51452;BME280;37521;52.020;-1.740;2023-04-23T03:28:23;98255.28;;;5.77;100.00
51452;BME280;37521;52.020;-1.740;2023-04-23T03:30:51;98252.81;;;5.74;100.00
51452;BME280;37521;52.020;-1.740;2023-04-23T03:33:19;98245.97;;;5.71;100.00
51452;BME280;37521;52.020;-1.740;2023-04-23T03:35:47;98261.78;;;5.70;100.00
51452;BME280;37521;52.020;-1.740;2023-04-23T03:38:20;98266.19;;;5.69;100.00
51452;BME280;37521;52.020;-1.740;2023-04-23T03:40:53;98265.34;;;5.69;100.00
51452;BME280;37521;52.020;-1.740;2023-04-23T03:43:22;98271.47;;;5.68;100.00
51452;BME280;37521;52.020;-1.740;2023-04-23T03:46:11;98265.47;;;5.66;100.00
51452;BME280;37521;52.020;-1.740;2023-04-23T03:48:41;98267.34;;;5.64;100.00
51452;BME280;37521;52.020;-1.740;2023-04-23T03:51:16;98275.34;;;5.61;100.00
51452;BME280;37521;52.020;-1.740;2023-04-23T03:53:48;98283.19;;;5.61;100.00
51452;BME280;37521;52.020;-1.740;2023-04-23T03:56:36;98279.75;;;5.60;100.00
51452;BME280;37521;52.020;-1.740;2023-04-23T03:59:20;98274.59;;;5.59;100.00
51452;BME280;37521;52.020;-1.740;2023-04-23T04:01:52;98278.16;;;5.58;100.00
51452;BME280;37521;52.020;-1.740;2023-04-23T04:04:20;98278.06;;;5.59;100.00
51452;BME280;37521;52.020;-1.740;2023-04-23T04:06:49;98277.22;;;5.59;100.00
51452;BME280;37521;52.020;-1.740;2023-04-23T04:09:17;98275.53;;;5.58;100.00
51452;BME280;37521;52.020;-1.740;2023-04-23T04:11:47;98278.16;;;5.58;100.00
51452;BME280;37521;52.020;-1.740;2023-04-23T04:14:17;98281.69;;;5.57;100.00
51452;BME280;37521;52.020;-1.740;2023-04-23T04:16:45;98287.06;;;5.54;100.00
51452;BME280;37521;52.020;-1.740;2023-04-23T04:19:13;98290.81;;;5.50;100.00
51452;BME280;37521;52.020;-1.740;2023-04-23T04:21:42;98289.19;;;5.47;100.00
51452;BME280;37521;52.020;-1.740;2023-04-23T04:24:10;98292.81;;;5.44;100.00
51452;BME280;37521;52.020;-1.740;2023-04-23T04:26:38;98283.28;;;5.43;100.00
51452;BME280;37521;52.020;-1.740;2023-04-23T04:29:10;98280.75;;;5.42;100.00
51452;BME280;37521;52.020;-1.740;2023-04-23T04:31:39;98275.56;;;5.40;100.00
51452;BME280;37521;52.020;-1.740;2023-04-23T04:34:07;98273.88;;;5.39;100.00
51452;BME280;37521;52.020;-1.740;2023-04-23T04:36:36;98280.06;;;5.38;100.00
51452;BME280;37521;52.020;-1.740;2023-04-23T04:39:04;98278.19;;;5.40;100.00
51452;BME280;37521;52.020;-1.740;2023-04-23T04:41:33;98290.50;;;5.38;100.00
51452;BME280;37521;52.020;-1.740;2023-04-23T04:44:03;98296.69;;;5.37;100.00
51452;BME280;37521;52.020;-1.740;2023-04-23T04:46:32;98305.47;;;5.36;100.00
51452;BME280;37521;52.020;-1.740;2023-04-23T04:49:06;98302.00;;;5.36;100.00
51452;BME280;37521;52.020;-1.740;2023-04-23T04:51:36;98296.81;;;5.34;100.00
51452;BME280;37521;52.020;-1.740;2023-04-23T04:54:04;98297.75;;;5.33;100.00
51452;BME280;37521;52.020;-1.740;2023-04-23T04:56:33;98302.16;;;5.33;100.00
51452;BME280;37521;52.020;-1.740;2023-04-23T04:59:01;98303.06;;;5.32;100.00
51452;BME280;37521;52.020;-1.740;2023-04-23T05:01:29;98309.34;;;5.29;100.00
51452;BME280;37521;52.020;-1.740;2023-04-23T05:03:59;98300.69;;;5.27;100.00
51452;BME280;37521;52.020;-1.740;2023-04-23T05:06:28;98305.88;;;5.29;100.00
51452;BME280;37521;52.020;-1.740;2023-04-23T05:08:58;98310.31;;;5.27;100.00
51452;BME280;37521;52.020;-1.740;2023-04-23T05:11:26;98314.72;;;5.26;100.00
51452;BME280;37521;52.020;-1.740;2023-04-23T05:13:55;98310.31;;;5.27;100.00
51452;BME280;37521;52.020;-1.740;2023-04-23T05:16:24;98314.72;;;5.26;100.00
51452;BME280;37521;52.020;-1.740;2023-04-23T05:18:52;98321.63;;;5.27;100.00
51452;BME280;37521;52.020;-1.740;2023-04-23T05:21:21;98321.63;;;5.27;100.00
51452;BME280;37521;52.020;-1.740;2023-04-23T05:23:49;98324.09;;;5.30;100.00
51452;BME280;37521;52.020;-1.740;2023-04-23T05:26:18;98321.31;;;5.33;100.00
51452;BME280;37521;52.020;-1.740;2023-04-23T05:28:47;98321.31;;;5.33;100.00
51452;BME280;37521;52.020;-1.740;2023-04-23T05:31:15;98322.16;;;5.34;100.00
51452;BME280;37521;52.020;-1.740;2023-04-23T05:33:43;98316.00;;;5.35;100.00
51452;BME280;37521;52.020;-1.740;2023-04-23T05:36:16;98312.53;;;5.34;100.00
51452;BME280;37521;52.020;-1.740;2023-04-23T05:38:46;98322.00;;;5.37;100.00
51452;BME280;37521;52.020;-1.740;2023-04-23T05:41:14;98326.22;;;5.39;100.00
51452;BME280;37521;52.020;-1.740;2023-04-23T05:43:42;98333.09;;;5.42;100.00
51452;BME280;37521;52.020;-1.740;2023-04-23T05:46:11;98322.53;;;5.43;100.00
51452;BME280;37521;52.020;-1.740;2023-04-23T05:48:39;98325.06;;;5.45;100.00
51452;BME280;37521;52.020;-1.740;2023-04-23T05:51:07;98333.00;;;5.43;100.00
51452;BME280;37521;52.020;-1.740;2023-04-23T05:53:36;98324.22;;;5.44;100.00
51452;BME280;37521;52.020;-1.740;2023-04-23T05:56:06;98330.22;;;5.46;100.00
51452;BME280;37521;52.020;-1.740;2023-04-23T05:58:34;98331.00;;;5.49;100.00
51452;BME280;37521;52.020;-1.740;2023-04-23T06:01:04;98330.13;;;5.48;100.00
51452;BME280;37521;52.020;-1.740;2023-04-23T06:03:33;98326.59;;;5.49;100.00
51452;BME280;37521;52.020;-1.740;2023-04-23T06:06:03;98321.19;;;5.52;100.00
51452;BME280;37521;52.020;-1.740;2023-04-23T06:08:31;98321.91;;;5.56;100.00
51452;BME280;37521;52.020;-1.740;2023-04-23T06:10:59;98326.94;;;5.59;100.00
51452;BME280;37521;52.020;-1.740;2023-04-23T06:13:29;98322.41;;;5.62;100.00
51452;BME280;37521;52.020;-1.740;2023-04-23T06:15:57;98331.78;;;5.66;100.00
51452;BME280;37521;52.020;-1.740;2023-04-23T06:18:26;98338.66;;;5.69;100.00
51452;BME280;37521;52.020;-1.740;2023-04-23T06:20:54;98329.69;;;5.73;100.00
51452;BME280;37521;52.020;-1.740;2023-04-23T06:23:23;98329.53;;;5.76;100.00
51452;BME280;37521;52.020;-1.740;2023-04-23T06:25:51;98324.28;;;5.76;100.00
51452;BME280;37521;52.020;-1.740;2023-04-23T06:28:19;98332.16;;;5.76;100.00
51452;BME280;37521;52.020;-1.740;2023-04-23T06:31:08;98328.84;;;5.72;100.00
51452;BME280;37521;52.020;-1.740;2023-04-23T06:33:37;98330.78;;;5.69;100.00
51452;BME280;37521;52.020;-1.740;2023-04-23T06:36:06;98338.88;;;5.64;100.00
51452;BME280;37521;52.020;-1.740;2023-04-23T06:38:37;98340.88;;;5.59;100.00
51452;BME280;37521;52.020;-1.740;2023-04-23T06:41:05;98345.50;;;5.54;100.00
51452;BME280;37521;52.020;-1.740;2023-04-23T06:43:33;98340.69;;;5.46;100.00
51452;BME280;37521;52.020;-1.740;2023-04-23T06:46:28;98335.94;;;5.37;100.00
51452;BME280;37521;52.020;-1.740;2023-04-23T06:48:56;98337.94;;;5.32;100.00
51452;BME280;37521;52.020;-1.740;2023-04-23T06:51:25;98343.34;;;5.29;100.00
51452;BME280;37521;52.020;-1.740;2023-04-23T06:53:53;98347.34;;;5.36;100.00
51452;BME280;37521;52.020;-1.740;2023-04-23T06:56:21;98346.00;;;5.45;100.00
51452;BME280;37521;52.020;-1.740;2023-04-23T06:58:49;98344.84;;;5.51;100.00
51452;BME280;37521;52.020;-1.740;2023-04-23T07:01:20;98342.31;;;5.49;100.00
51452;BME280;37521;52.020;-1.740;2023-04-23T07:03:49;98339.75;;;5.47;100.00
51452;BME280;37521;52.020;-1.740;2023-04-23T07:06:20;98339.69;;;5.49;100.00
51452;BME280;37521;52.020;-1.740;2023-04-23T07:08:48;98339.59;;;5.51;100.00
51452;BME280;37521;52.020;-1.740;2023-04-23T07:11:17;98338.59;;;5.53;100.00
51452;BME280;37521;52.020;-1.740;2023-04-23T07:13:45;98332.28;;;5.57;100.00
51452;BME280;37521;52.020;-1.740;2023-04-23T07:16:13;98339.72;;;5.65;100.00
51452;BME280;37521;52.020;-1.740;2023-04-23T07:18:42;98328.00;;;5.72;100.00
51452;BME280;37521;52.020;-1.740;2023-04-23T07:21:11;98334.78;;;5.76;100.00
51452;BME280;37521;52.020;-1.740;2023-04-23T07:23:39;98333.75;;;5.79;100.00
51452;BME280;37521;52.020;-1.740;2023-04-23T07:26:08;98327.44;;;5.83;100.00
51452;BME280;37521;52.020;-1.740;2023-04-23T07:28:36;98335.03;;;5.87;100.00
51452;BME280;37521;52.020;-1.740;2023-04-23T07:31:04;98337.34;;;5.93;100.00
51452;BME280;37521;52.020;-1.740;2023-04-23T07:33:33;98334.41;;;5.99;100.00
51452;BME280;37521;52.020;-1.740;2023-04-23T07:36:01;98338.69;;;6.00;100.00
51452;BME280;37521;52.020;-1.740;2023-04-23T07:38:31;98337.00;;;5.99;100.00
51452;BME280;37521;52.020;-1.740;2023-04-23T07:40:59;98337.19;;;5.96;100.00
51452;BME280;37521;52.020;-1.740;2023-04-23T07:43:27;98341.84;;;5.91;100.00
51452;BME280;37521;52.020;-1.740;2023-04-23T07:45:55;98344.34;;;5.93;100.00
51452;BME280;37521;52.020;-1.740;2023-04-23T07:48:24;98348.34;;;6.00;100.00
51452;BME280;37521;52.020;-1.740;2023-04-23T07:50:52;98347.34;;;6.03;100.00
51452;BME280;37521;52.020;-1.740;2023-04-23T07:53:21;98348.09;;;6.05;100.00
51452;BME280;37521;52.020;-1.740;2023-04-23T07:55:50;98346.84;;;6.12;100.00
51452;BME280;37521;52.020;-1.740;2023-04-23T07:58:18;98345.66;;;6.17;100.00
51452;BME280;37521;52.020;-1.740;2023-04-23T08:00:47;98339.97;;;6.25;100.00
51452;BME280;37521;52.020;-1.740;2023-04-23T08:03:15;98341.94;;;6.37;100.00
51452;BME280;37521;52.020;-1.740;2023-04-23T08:05:43;98343.28;;;6.44;100.00
51452;BME280;37521;52.020;-1.740;2023-04-23T08:08:12;98351.13;;;6.44;100.00
51452;BME280;37521;52.020;-1.740;2023-04-23T08:10:40;98358.25;;;6.42;100.00
51452;BME280;37521;52.020;-1.740;2023-04-23T08:13:10;98360.00;;;6.42;100.00
51452;BME280;37521;52.020;-1.740;2023-04-23T08:15:38;98350.94;;;6.47;100.00
51452;BME280;37521;52.020;-1.740;2023-04-23T08:18:06;98350.44;;;6.57;100.00
51452;BME280;37521;52.020;-1.740;2023-04-23T08:20:34;98359.31;;;6.70;100.00
51452;BME280;37521;52.020;-1.740;2023-04-23T08:23:06;98355.22;;;6.80;100.00
51452;BME280;37521;52.020;-1.740;2023-04-23T08:25:34;98360.22;;;6.85;100.00
51452;BME280;37521;52.020;-1.740;2023-04-23T08:28:02;98354.72;;;6.89;100.00
51452;BME280;37521;52.020;-1.740;2023-04-23T08:30:32;98352.00;;;6.91;100.00
51452;BME280;37521;52.020;-1.740;2023-04-23T08:33:00;98360.59;;;6.93;100.00
51452;BME280;37521;52.020;-1.740;2023-04-23T08:35:28;98362.78;;;7.00;100.00
51452;BME280;37521;52.020;-1.740;2023-04-23T08:37:57;98368.38;;;7.10;100.00
51452;BME280;37521;52.020;-1.740;2023-04-23T08:40:29;98367.94;;;7.32;100.00
51452;BME280;37521;52.020;-1.740;2023-04-23T08:43:01;98364.03;;;7.68;100.00
51452;BME280;37521;52.020;-1.740;2023-04-23T08:45:29;98355.00;;;8.00;100.00
51452;BME280;37521;52.020;-1.740;2023-04-23T08:47:59;98362.41;;;8.08;100.00
51452;BME280;37521;52.020;-1.740;2023-04-23T08:50:29;98369.28;;;8.10;100.00
51452;BME280;37521;52.020;-1.740;2023-04-23T08:52:57;98364.44;;;7.90;100.00
51452;BME280;37521;52.020;-1.740;2023-04-23T08:55:26;98364.03;;;7.68;100.00
51452;BME280;37521;52.020;-1.740;2023-04-23T08:57:57;98356.41;;;7.49;100.00
51452;BME280;37521;52.020;-1.740;2023-04-23T09:00:25;98358.00;;;7.37;100.00
51452;BME280;37521;52.020;-1.740;2023-04-23T09:02:53;98360.31;;;7.27;100.00
51452;BME280;37521;52.020;-1.740;2023-04-23T09:05:25;98359.84;;;7.21;100.00
51452;BME280;37521;52.020;-1.740;2023-04-23T09:07:54;98359.69;;;7.24;100.00
51452;BME280;37521;52.020;-1.740;2023-04-23T09:10:23;98367.44;;;7.25;100.00
51452;BME280;37521;52.020;-1.740;2023-04-23T09:12:51;98363.78;;;7.28;100.00
51452;BME280;37521;52.020;-1.740;2023-04-23T09:15:19;98361.16;;;7.28;100.00
51452;BME280;37521;52.020;-1.740;2023-04-23T09:17:48;98365.50;;;7.29;100.00
51452;BME280;37521;52.020;-1.740;2023-04-23T09:20:17;98368.13;;;7.29;100.00
51452;BME280;37521;52.020;-1.740;2023-04-23T09:22:47;98371.66;;;7.28;100.00
51452;BME280;37521;52.020;-1.740;2023-04-23T09:25:17;98367.94;;;7.32;100.00
51452;BME280;37521;52.020;-1.740;2023-04-23T09:27:46;98361.56;;;7.36;100.00
51452;BME280;37521;52.020;-1.740;2023-04-23T09:30:14;98360.63;;;7.37;100.00
51452;BME280;37521;52.020;-1.740;2023-04-23T09:32:44;98367.38;;;7.41;100.00
51452;BME280;37521;52.020;-1.740;2023-04-23T09:35:14;98367.00;;;7.47;100.00
51452;BME280;37521;52.020;-1.740;2023-04-23T09:37:44;98365.63;;;7.84;100.00
51452;BME280;37521;52.020;-1.740;2023-04-23T09:40:17;98353.09;;;8.31;100.00
51452;BME280;37521;52.020;-1.740;2023-04-23T09:42:47;98350.19;;;8.77;100.00
51452;BME280;37521;52.020;-1.740;2023-04-23T09:45:16;98349.56;;;8.86;100.00
51452;BME280;37521;52.020;-1.740;2023-04-23T09:47:49;98351.16;;;9.01;100.00
51452;BME280;37521;52.020;-1.740;2023-04-23T09:50:18;98348.53;;;9.01;100.00
51452;BME280;37521;52.020;-1.740;2023-04-23T09:52:53;98348.91;;;8.82;100.00
51452;BME280;37521;52.020;-1.740;2023-04-23T09:55:31;98343.00;;;8.79;100.00
51452;BME280;37521;52.020;-1.740;2023-04-23T09:58:03;98343.50;;;8.98;100.00
51452;BME280;37521;52.020;-1.740;2023-04-23T10:00:33;98346.44;;;9.06;100.00
51452;BME280;37521;52.020;-1.740;2023-04-23T10:03:02;98352.94;;;9.53;100.00
51452;BME280;37521;52.020;-1.740;2023-04-23T10:05:31;98351.94;;;10.05;100.00
51452;BME280;37521;52.020;-1.740;2023-04-23T10:08:20;98350.31;;;9.78;100.00
51452;BME280;37521;52.020;-1.740;2023-04-23T10:10:50;98347.66;;;9.40;100.00
51452;BME280;37521;52.020;-1.740;2023-04-23T10:13:38;98342.31;;;9.02;100.00
51452;BME280;37521;52.020;-1.740;2023-04-23T10:16:07;98355.44;;;8.89;100.00
51452;BME280;37521;52.020;-1.740;2023-04-23T10:18:50;98342.28;;;8.77;100.00
51452;BME280;37521;52.020;-1.740;2023-04-23T10:21:24;98338.59;;;8.79;100.00
51452;BME280;37521;52.020;-1.740;2023-04-23T10:24:02;98346.69;;;9.28;100.00
51452;BME280;37521;52.020;-1.740;2023-04-23T10:26:37;98346.69;;;9.92;100.00
51452;BME280;37521;52.020;-1.740;2023-04-23T10:29:08;98334.19;;;10.56;100.00
51452;BME280;37521;52.020;-1.740;2023-04-23T10:31:36;98334.19;;;10.80;100.00
51452;BME280;37521;52.020;-1.740;2023-04-23T10:34:06;98339.03;;;10.62;100.00
51452;BME280;37521;52.020;-1.740;2023-04-23T10:36:36;98340.00;;;10.38;100.00
51452;BME280;37521;52.020;-1.740;2023-04-23T10:39:05;98336.50;;;10.85;100.00
51452;BME280;37521;52.020;-1.740;2023-04-23T10:41:38;98336.81;;;11.39;100.00
51452;BME280;37521;52.020;-1.740;2023-04-23T10:44:10;98335.19;;;11.83;100.00
51452;BME280;37521;52.020;-1.740;2023-04-23T10:46:50;98334.72;;;11.89;100.00
51452;BME280;37521;52.020;-1.740;2023-04-23T10:49:21;98335.69;;;12.11;100.00
51452;BME280;37521;52.020;-1.740;2023-04-23T10:51:57;98330.78;;;12.49;100.00
51452;BME280;37521;52.020;-1.740;2023-04-23T10:54:30;98332.31;;;12.20;100.00
51452;BME280;37521;52.020;-1.740;2023-04-23T10:57:02;98333.63;;;12.03;100.00
51452;BME280;37521;52.020;-1.740;2023-04-23T10:59:32;98334.97;;;11.97;100.00
51452;BME280;37521;52.020;-1.740;2023-04-23T11:02:05;98332.75;;;11.80;100.00
51452;BME280;37521;52.020;-1.740;2023-04-23T11:04:35;98327.25;;;11.94;100.00
51452;BME280;37521;52.020;-1.740;2023-04-23T11:07:05;98331.47;;;11.86;100.00
51452;BME280;37521;52.020;-1.740;2023-04-23T11:09:37;98323.63;;;11.73;100.00
51452;BME280;37521;52.020;-1.740;2023-04-23T11:12:09;98328.97;;;11.84;100.00
51452;BME280;37521;52.020;-1.740;2023-04-23T11:14:45;98325.56;;;12.16;100.00
51452;BME280;37521;52.020;-1.740;2023-04-23T11:17:15;98324.28;;;12.65;100.00
51452;BME280;37521;52.020;-1.740;2023-04-23T11:20:06;98327.41;;;13.23;100.00
51452;BME280;37521;52.020;-1.740;2023-04-23T11:22:37;98325.31;;;13.05;100.00
51452;BME280;37521;52.020;-1.740;2023-04-23T11:25:09;98316.28;;;13.29;100.00
51452;BME280;37521;52.020;-1.740;2023-04-23T11:27:39;98324.19;;;13.40;100.00
51452;BME280;37521;52.020;-1.740;2023-04-23T11:30:11;98319.69;;;13.31;100.00
51452;BME280;37521;52.020;-1.740;2023-04-23T11:32:40;98321.81;;;12.84;100.00
51452;BME280;37521;52.020;-1.740;2023-04-23T11:35:09;98324.56;;;12.39;100.00
51452;BME280;37521;52.020;-1.740;2023-04-23T11:37:40;98327.16;;;11.85;100.00
51452;BME280;37521;52.020;-1.740;2023-04-23T11:40:09;98333.78;;;11.33;100.00
51452;BME280;37521;52.020;-1.740;2023-04-23T11:42:42;98329.75;;;11.16;100.00
51452;BME280;37521;52.020;-1.740;2023-04-23T11:45:14;98331.97;;;11.33;100.00
51452;BME280;37521;52.020;-1.740;2023-04-23T11:47:43;98333.81;;;11.55;100.00
51452;BME280;37521;52.020;-1.740;2023-04-23T11:50:16;98338.56;;;11.85;100.00
51452;BME280;37521;52.020;-1.740;2023-04-23T11:52:45;98339.06;;;11.90;100.00
51452;BME280;37521;52.020;-1.740;2023-04-23T11:55:14;98342.22;;;11.49;100.00
51452;BME280;37521;52.020;-1.740;2023-04-23T11:57:45;98347.72;;;11.00;100.00
51452;BME280;37521;52.020;-1.740;2023-04-23T12:00:15;98354.38;;;10.57;100.00
51452;BME280;37521;52.020;-1.740;2023-04-23T12:02:51;98361.84;;;10.14;100.00
51452;BME280;37521;52.020;-1.740;2023-04-23T12:05:21;98365.69;;;9.85;100.00
51452;BME280;37521;52.020;-1.740;2023-04-23T12:07:50;98364.84;;;9.71;100.00
51452;BME280;37521;52.020;-1.740;2023-04-23T12:10:19;98363.38;;;9.67;100.00
51452;BME280;37521;52.020;-1.740;2023-04-23T12:12:50;98367.38;;;9.73;100.00
51452;BME280;37521;52.020;-1.740;2023-04-23T12:15:19;98358.09;;;9.80;100.00
51452;BME280;37521;52.020;-1.740;2023-04-23T12:17:48;98360.00;;;9.91;100.00
51452;BME280;37521;52.020;-1.740;2023-04-23T12:20:18;98351.84;;;9.94;100.00
51452;BME280;37521;52.020;-1.740;2023-04-23T12:22:47;98356.81;;;10.11;100.00
51452;BME280;37521;52.020;-1.740;2023-04-23T12:25:15;98345.81;;;10.30;100.00
51452;BME280;37521;52.020;-1.740;2023-04-23T12:27:43;98337.28;;;10.98;100.00
51452;BME280;37521;52.020;-1.740;2023-04-23T12:30:15;98346.78;;;11.47;100.00
51452;BME280;37521;52.020;-1.740;2023-04-23T12:32:43;98336.06;;;11.84;100.00
51452;BME280;37521;52.020;-1.740;2023-04-23T12:35:11;98332.94;;;12.55;100.00
51452;BME280;37521;52.020;-1.740;2023-04-23T12:37:40;98338.16;;;13.42;100.00
51452;BME280;37521;52.020;-1.740;2023-04-23T12:40:09;98338.09;;;13.84;100.00
51452;BME280;37521;52.020;-1.740;2023-04-23T12:42:37;98331.56;;;14.28;100.00
51452;BME280;37521;52.020;-1.740;2023-04-23T12:45:07;98328.84;;;14.49;99.56
51452;BME280;37521;52.020;-1.740;2023-04-23T12:47:37;98334.69;;;14.43;100.00
51452;BME280;37521;52.020;-1.740;2023-04-23T12:50:06;98329.84;;;14.17;97.12
51452;BME280;37521;52.020;-1.740;2023-04-23T12:52:34;98337.50;;;13.29;100.00
51452;BME280;37521;52.020;-1.740;2023-04-23T12:55:04;98339.66;;;12.71;100.00
51452;BME280;37521;52.020;-1.740;2023-04-23T12:57:32;98339.28;;;12.21;100.00
51452;BME280;37521;52.020;-1.740;2023-04-23T13:00:00;98342.25;;;11.60;100.00
51452;BME280;37521;52.020;-1.740;2023-04-23T13:02:29;98348.16;;;11.17;100.00